| Date | Time | Temp. (oF) | Dew Point (oF) | Rel. Hum. (%) | Press. (in.) | Wind Dir. | Wind Speed (mph) | Hourly Rainfall (in.) |
|
|---|---|---|---|---|---|---|---|---|---|
| 1 | 02/29 | 00:00 | 20 | 6 | 55 | 30.41 | NNW | 1 | 0.00 |
| 2 | 02/28 | 23:00 | 21 | 6 | 52 | 30.39 | NNW | 4 | 0.00 |
| 3 | 02/28 | 22:00 | 22 | 7 | 52 | 30.38 | N | 2 | 0.00 |
| 4 | 02/28 | 21:00 | 23 | 6 | 49 | 30.36 | NNW | 4 | 0.00 |
| 5 | 02/28 | 20:00 | 24 | 7 | 49 | 30.32 | WNW | 4 | 0.00 |
| 6 | 02/28 | 19:00 | 25 | 6 | 45 | 30.29 | WNW | 6 | 0.00 |
| 7 | 02/28 | 18:00 | 26 | 5 | 41 | 30.25 | WNW | 7 | 0.00 |
| 8 | 02/28 | 17:00 | 28 | 6 | 40 | 30.20 | NW | 7 | 0.00 |
| 9 | 02/28 | 16:00 | 29 | 7 | 39 | 30.17 | NW | 8 | 0.00 |
| 10 | 02/28 | 15:00 | 30 | 8 | 40 | 30.14 | NW | 14 | 0.00 |
| 11 | 02/28 | 14:00 | 27 | 6 | 41 | 30.13 | W | 18 | 0.00 |
| 12 | 02/28 | 13:00 | 26 | 6 | 44 | 30.13 | SSW | 5 | 0.00 |
| 13 | 02/28 | 12:00 | 24 | 5 | 45 | 30.14 | N | 10 | 0.00 |
| 14 | 02/28 | 11:00 | 24 | 7 | 49 | 30.14 | WNW | 8 | 0.00 |
| 15 | 02/28 | 10:00 | 22 | 4 | 47 | 30.14 | W | 9 | 0.00 |
| 16 | 02/28 | 09:00 | 21 | 4 | 49 | 30.12 | NW | 9 | 0.00 |
| 17 | 02/28 | 08:00 | 19 | 5 | 54 | 30.09 | WNW | 5 | 0.00 |
| 18 | 02/28 | 07:00 | 17 | 4 | 58 | 30.05 | WNW | 5 | 0.00 |
| 19 | 02/28 | 06:00 | 17 | 3 | 56 | 30.03 | WNW | 12 | 0.00 |
| 20 | 02/28 | 05:00 | 18 | 4 | 56 | 30.00 | NW | 9 | 0.00 |
| 21 | 02/28 | 04:00 | 18 | 4 | 54 | 29.98 | NW | 9 | 0.00 |
| 22 | 02/28 | 03:00 | 19 | 5 | 54 | 29.96 | WNW | 7 | 0.00 |
| 23 | 02/28 | 02:00 | 20 | 6 | 56 | 29.95 | NW | 6 | 0.00 |
| 24 | 02/28 | 01:00 | 20 | 5 | 54 | 29.94 | NW | 10 | 0.00 |